createdAt,value
2018-04-18T00:09:05.405Z,25
2018-04-18T00:19:05.389Z,27
2018-04-18T00:29:05.394Z,25
2018-04-18T00:39:05.401Z,25
2018-04-18T00:49:05.291Z,26
2018-04-18T00:59:05.449Z,25
2018-04-18T01:09:05.391Z,24
2018-04-18T01:19:05.463Z,27
2018-04-18T01:29:05.362Z,20
2018-04-18T01:39:05.409Z,24
2018-04-18T01:49:05.386Z,27
2018-04-18T01:59:05.483Z,27
2018-04-18T02:09:05.391Z,29
2018-04-18T02:19:05.365Z,26
2018-04-18T02:29:05.459Z,28
2018-04-18T02:39:05.458Z,25
2018-04-18T02:49:05.490Z,29
2018-04-18T02:59:05.466Z,25
2018-04-18T03:09:05.457Z,32
2018-04-18T03:19:05.447Z,29
2018-04-18T03:29:05.531Z,32
2018-04-18T03:39:05.479Z,25
2018-04-18T03:49:05.615Z,26
2018-04-18T03:59:06.126Z,26
2018-04-18T04:09:05.595Z,29
2018-04-18T04:19:05.493Z,31
2018-04-18T04:29:05.540Z,32
2018-04-18T04:39:05.518Z,39
2018-04-18T04:49:05.663Z,30
2018-04-18T04:59:05.551Z,28
2018-04-18T05:09:05.567Z,27
2018-04-18T05:19:05.670Z,28
2018-04-18T05:29:05.680Z,32
2018-04-18T05:39:05.652Z,33
2018-04-18T05:49:05.652Z,30
2018-04-18T05:59:05.676Z,26
2018-04-18T06:09:05.629Z,33
2018-04-18T06:19:06.355Z,40
2018-04-18T06:29:05.615Z,42
2018-04-18T06:39:05.696Z,46
2018-04-18T06:49:05.689Z,41
2018-04-18T06:59:08.335Z,41
2018-04-18T07:09:05.626Z,41
2018-04-18T07:19:06.132Z,39
2018-04-18T07:29:05.720Z,35
2018-04-18T07:39:05.972Z,37
2018-04-18T07:49:05.811Z,34
2018-04-18T07:59:07.956Z,30
2018-04-18T08:09:07.288Z,32
2018-04-18T08:19:05.975Z,33
2018-04-18T08:29:07.872Z,25
2018-04-18T08:39:08.393Z,25
2018-04-18T08:49:08.224Z,17
2018-04-18T08:59:06.236Z,17
2018-04-18T09:09:05.850Z,16
2018-04-18T09:19:05.706Z,16
2018-04-18T09:29:05.776Z,18
2018-04-18T09:39:05.756Z,15
2018-04-18T09:49:06.741Z,15
2018-04-18T09:59:05.791Z,12
2018-04-18T10:09:05.709Z,12
2018-04-18T10:19:07.854Z,12
2018-04-18T10:29:05.797Z,13
2018-04-18T10:39:06.909Z,13
2018-04-18T10:49:05.788Z,16
2018-04-18T10:59:05.771Z,18
2018-04-18T11:09:06.020Z,17
2018-04-18T11:19:08.106Z,13
2018-04-18T11:29:05.942Z,15
2018-04-18T11:39:06.155Z,13
2018-04-18T11:49:05.708Z,9
2018-04-18T11:59:06.296Z,12
2018-04-18T12:09:05.740Z,16
2018-04-18T12:19:05.761Z,14
2018-04-18T12:29:05.779Z,16
2018-04-18T12:39:05.827Z,15
2018-04-18T12:49:05.824Z,16
2018-04-18T12:59:05.809Z,15
2018-04-18T13:09:05.756Z,20
2018-04-18T13:19:05.771Z,20
2018-04-18T13:29:05.812Z,19
2018-04-18T13:39:05.808Z,22
2018-04-18T13:49:05.774Z,19
2018-04-18T13:59:05.787Z,25
2018-04-18T14:09:05.756Z,25
2018-04-18T14:19:05.804Z,24
2018-04-18T14:29:06.065Z,26
2018-04-18T14:39:05.940Z,24
2018-04-18T14:49:33.432Z,27
2018-04-18T14:59:07.192Z,23
2018-04-18T15:09:07.422Z,26
2018-04-18T15:19:06.841Z,31
2018-04-18T15:29:06.763Z,26
2018-04-18T15:39:07.083Z,29
2018-04-18T15:49:06.949Z,21
2018-04-18T15:59:06.737Z,24
2018-04-18T16:09:06.609Z,22
2018-04-18T16:19:08.917Z,18
2018-04-18T16:29:05.933Z,20
2018-04-18T16:39:12.823Z,22
2018-04-18T16:49:08.957Z,20
2018-04-18T16:59:06.815Z,15
2018-04-18T17:09:15.677Z,17
2018-04-18T17:19:06.248Z,20
2018-04-18T17:29:05.939Z,21
2018-04-18T17:39:13.491Z,17
2018-04-18T17:49:45.740Z,19
2018-04-18T17:59:05.926Z,18
2018-04-18T18:10:36.266Z,16
2018-04-18T18:20:35.059Z,17
2018-04-18T18:30:35.456Z,21
2018-04-18T18:40:38.627Z,22
2018-04-18T18:50:34.540Z,20
2018-04-18T19:00:41.573Z,22
2018-04-18T19:10:35.145Z,20
2018-04-18T19:20:34.390Z,24
2018-04-18T19:30:36.637Z,29
2018-04-18T19:40:35.424Z,29
2018-04-18T19:50:35.575Z,36
2018-04-18T19:59:06.064Z,27
2018-04-18T20:09:06.021Z,34
2018-04-18T20:19:06.093Z,33
2018-04-18T20:29:06.862Z,34
2018-04-18T20:39:06.129Z,33
2018-04-18T20:49:06.731Z,33
2018-04-18T20:59:06.339Z,33
2018-04-18T21:09:06.198Z,33
2018-04-18T21:19:06.668Z,33
2018-04-18T21:29:28.963Z,34
2018-04-18T21:39:06.368Z,33
2018-04-18T21:49:13.573Z,39
2018-04-18T21:59:13.373Z,40
2018-04-18T22:09:13.582Z,36
2018-04-18T22:19:06.713Z,37
2018-04-18T22:29:06.708Z,34
2018-04-18T22:39:05.879Z,36
2018-04-18T22:49:06.085Z,36
2018-04-18T22:59:06.985Z,42
2018-04-18T23:09:05.968Z,40
2018-04-18T23:19:06.192Z,39
2018-04-18T23:29:06.076Z,43
2018-04-18T23:39:05.887Z,39
2018-04-18T23:49:06.041Z,38
2018-04-18T23:59:05.991Z,41
